sensor_id;sensor_type;location;lat;lon;timestamp;pressure;altitude;pressure_sealevel;temperature;humidity
70982;BME280;58640;51.320;9.456;2022-11-18T00:00:48;97595.75;;;7.96;100.00
70982;BME280;58640;51.320;9.456;2022-11-18T00:03:14;97599.25;;;7.97;100.00
70982;BME280;58640;51.320;9.456;2022-11-18T00:05:39;97598.25;;;7.98;100.00
70982;BME280;58640;51.320;9.456;2022-11-18T00:08:05;97602.78;;;7.97;100.00
70982;BME280;58640;51.320;9.456;2022-11-18T00:10:31;97600.50;;;7.94;100.00
70982;BME280;58640;51.320;9.456;2022-11-18T00:12:56;97599.88;;;7.99;100.00
70982;BME280;58640;51.320;9.456;2022-11-18T00:15:40;97600.72;;;7.99;100.00
70982;BME280;58640;51.320;9.456;2022-11-18T00:18:06;97608.13;;;7.97;100.00
70982;BME280;58640;51.320;9.456;2022-11-18T00:20:33;97606.09;;;7.99;100.00
70982;BME280;58640;51.320;9.456;2022-11-18T00:22:58;97603.59;;;7.98;100.00
70982;BME280;58640;51.320;9.456;2022-11-18T00:25:24;97606.88;;;8.00;100.00
70982;BME280;58640;51.320;9.456;2022-11-18T00:27:49;97607.09;;;7.98;100.00
70982;BME280;58640;51.320;9.456;2022-11-18T00:30:15;97605.25;;;7.99;100.00
70982;BME280;58640;51.320;9.456;2022-11-18T00:32:40;97606.09;;;7.99;100.00
70982;BME280;58640;51.320;9.456;2022-11-18T00:35:06;97606.66;;;7.95;100.00
70982;BME280;58640;51.320;9.456;2022-11-18T00:37:32;97612.25;;;8.00;100.00
70982;BME280;58640;51.320;9.456;2022-11-18T00:39:57;97612.03;;;8.08;100.00
70982;BME280;58640;51.320;9.456;2022-11-18T00:42:23;97611.44;;;7.99;100.00
70982;BME280;58640;51.320;9.456;2022-11-18T00:45:07;97614.50;;;7.96;100.00
70982;BME280;58640;51.320;9.456;2022-11-18T00:47:32;97611.81;;;7.96;100.00
70982;BME280;58640;51.320;9.456;2022-11-18T00:49:57;97614.69;;;7.95;100.00
70982;BME280;58640;51.320;9.456;2022-11-18T00:52:23;97603.78;;;7.96;100.00
70982;BME280;58640;51.320;9.456;2022-11-18T00:54:48;97608.34;;;7.96;100.00
70982;BME280;58640;51.320;9.456;2022-11-18T00:57:13;97612.03;;;7.95;100.00
70982;BME280;58640;51.320;9.456;2022-11-18T00:59:39;97611.81;;;7.96;100.00
70982;BME280;58640;51.320;9.456;2022-11-18T01:02:04;97609.53;;;7.93;100.00
70982;BME280;58640;51.320;9.456;2022-11-18T01:04:29;97612.22;;;7.87;100.00
70982;BME280;58640;51.320;9.456;2022-11-18T01:06:55;97608.31;;;7.89;100.00
70982;BME280;58640;51.320;9.456;2022-11-18T01:09:20;97608.13;;;7.91;100.00
70982;BME280;58640;51.320;9.456;2022-11-18T01:11:46;97611.41;;;7.93;100.00
70982;BME280;58640;51.320;9.456;2022-11-18T01:14:30;97613.06;;;7.94;100.00
70982;BME280;58640;51.320;9.456;2022-11-18T01:16:55;97611.22;;;7.94;100.00
70982;BME280;58640;51.320;9.456;2022-11-18T01:19:21;97614.91;;;7.93;100.00
70982;BME280;58640;51.320;9.456;2022-11-18T01:21:48;97610.38;;;7.94;100.00
70982;BME280;58640;51.320;9.456;2022-11-18T01:24:13;97607.91;;;7.92;100.00
70982;BME280;58640;51.320;9.456;2022-11-18T01:26:39;97604.81;;;7.89;100.00
70982;BME280;58640;51.320;9.456;2022-11-18T01:29:04;97612.63;;;7.90;100.00
70982;BME280;58640;51.320;9.456;2022-11-18T01:31:29;97617.56;;;7.87;100.00
70982;BME280;58640;51.320;9.456;2022-11-18T01:33:55;97623.13;;;7.85;100.00
70982;BME280;58640;51.320;9.456;2022-11-18T01:36:24;97620.44;;;7.85;100.00
70982;BME280;58640;51.320;9.456;2022-11-18T01:38:50;97629.72;;;7.83;100.00
70982;BME280;58640;51.320;9.456;2022-11-18T01:41:17;97622.09;;;7.80;100.00
70982;BME280;58640;51.320;9.456;2022-11-18T01:46:20;97629.91;;;7.81;100.00
70982;BME280;58640;51.320;9.456;2022-11-18T01:48:51;97624.56;;;7.81;100.00
70982;BME280;58640;51.320;9.456;2022-11-18T01:51:21;97622.72;;;7.82;100.00
70982;BME280;58640;51.320;9.456;2022-11-18T01:53:51;97636.47;;;7.79;100.00
70982;BME280;58640;51.320;9.456;2022-11-18T01:56:22;97636.47;;;7.79;100.00
70982;BME280;58640;51.320;9.456;2022-11-18T01:58:53;97636.88;;;7.76;100.00
70982;BME280;58640;51.320;9.456;2022-11-18T02:01:19;97639.16;;;7.79;100.00
70982;BME280;58640;51.320;9.456;2022-11-18T02:03:45;97638.56;;;7.77;100.00
70982;BME280;58640;51.320;9.456;2022-11-18T02:06:12;97638.75;;;7.75;100.00
70982;BME280;58640;51.320;9.456;2022-11-18T02:08:39;97642.44;;;7.74;100.00
70982;BME280;58640;51.320;9.456;2022-11-18T02:11:09;97644.72;;;7.77;100.00
70982;BME280;58640;51.320;9.456;2022-11-18T02:13:55;97648.44;;;7.76;100.00
70982;BME280;58640;51.320;9.456;2022-11-18T02:16:26;97649.88;;;7.72;100.00
70982;BME280;58640;51.320;9.456;2022-11-18T02:19:01;97648.41;;;7.70;100.00
70982;BME280;58640;51.320;9.456;2022-11-18T02:24:42;97643.28;;;7.75;100.00
70982;BME280;58640;51.320;9.456;2022-11-18T02:29:51;97645.97;;;7.75;100.00
70982;BME280;58640;51.320;9.456;2022-11-18T02:32:32;97655.03;;;7.74;100.00
70982;BME280;58640;51.320;9.456;2022-11-18T02:35:05;97650.28;;;7.76;100.00
70982;BME280;58640;51.320;9.456;2022-11-18T02:37:40;97655.22;;;7.79;100.00
70982;BME280;58640;51.320;9.456;2022-11-18T02:42:41;97659.97;;;7.77;100.00
70982;BME280;58640;51.320;9.456;2022-11-18T02:45:14;97650.28;;;7.76;100.00
70982;BME280;58640;51.320;9.456;2022-11-18T02:47:42;97654.59;;;7.70;100.00
70982;BME280;58640;51.320;9.456;2022-11-18T02:50:14;97663.22;;;7.66;100.00
70982;BME280;58640;51.320;9.456;2022-11-18T02:52:41;97656.44;;;7.70;100.00
70982;BME280;58640;51.320;9.456;2022-11-18T02:55:10;97665.91;;;7.66;100.00
70982;BME280;58640;51.320;9.456;2022-11-18T02:57:36;97666.31;;;7.63;100.00
70982;BME280;58640;51.320;9.456;2022-11-18T03:00:03;97669.78;;;7.63;100.00
70982;BME280;58640;51.320;9.456;2022-11-18T03:02:39;97664.22;;;7.65;100.00
70982;BME280;58640;51.320;9.456;2022-11-18T03:05:09;97660.97;;;7.63;100.00
70982;BME280;58640;51.320;9.456;2022-11-18T03:07:39;97662.56;;;7.57;100.00
70982;BME280;58640;51.320;9.456;2022-11-18T03:10:05;97671.22;;;7.59;100.00
70982;BME280;58640;51.320;9.456;2022-11-18T03:12:57;97668.56;;;7.59;100.00
70982;BME280;58640;51.320;9.456;2022-11-18T03:20:51;97672.00;;;7.47;100.00
70982;BME280;58640;51.320;9.456;2022-11-18T03:23:31;97672.41;;;7.50;100.00
70982;BME280;58640;51.320;9.456;2022-11-18T03:26:08;97680.91;;;7.67;100.00
70982;BME280;58640;51.320;9.456;2022-11-18T03:28:45;97677.59;;;7.58;100.00
70982;BME280;58640;51.320;9.456;2022-11-18T03:31:20;97681.91;;;7.53;100.00
70982;BME280;58640;51.320;9.456;2022-11-18T03:33:50;97687.03;;;7.54;100.00
70982;BME280;58640;51.320;9.456;2022-11-18T03:36:19;97690.38;;;7.63;100.00
70982;BME280;58640;51.320;9.456;2022-11-18T03:38:50;97692.44;;;7.61;100.00
70982;BME280;58640;51.320;9.456;2022-11-18T03:41:18;97697.19;;;7.65;100.00
70982;BME280;58640;51.320;9.456;2022-11-18T03:43:59;97701.47;;;7.60;100.00
70982;BME280;58640;51.320;9.456;2022-11-18T03:46:38;97701.09;;;7.63;100.00
70982;BME280;58640;51.320;9.456;2022-11-18T03:49:07;97711.78;;;7.63;100.00
70982;BME280;58640;51.320;9.456;2022-11-18T03:51:40;97704.13;;;7.60;100.00
70982;BME280;58640;51.320;9.456;2022-11-18T03:54:18;97706.00;;;7.59;100.00
70982;BME280;58640;51.320;9.456;2022-11-18T03:57:05;97700.66;;;7.59;100.00
70982;BME280;58640;51.320;9.456;2022-11-18T03:59:39;97705.00;;;7.67;100.00
70982;BME280;58640;51.320;9.456;2022-11-18T04:04:37;97709.31;;;7.68;100.00
70982;BME280;58640;51.320;9.456;2022-11-18T04:09:55;97712.19;;;7.66;100.00
70982;BME280;58640;51.320;9.456;2022-11-18T04:12:22;97713.88;;;7.67;100.00
70982;BME280;58640;51.320;9.456;2022-11-18T04:14:50;97718.16;;;7.62;100.00
70982;BME280;58640;51.320;9.456;2022-11-18T04:17:22;97712.78;;;7.62;100.00
70982;BME280;58640;51.320;9.456;2022-11-18T04:19:48;97715.66;;;7.60;100.00
70982;BME280;58640;51.320;9.456;2022-11-18T04:22:14;97721.22;;;7.59;100.00
70982;BME280;58640;51.320;9.456;2022-11-18T04:24:39;97724.53;;;7.61;100.00
70982;BME280;58640;51.320;9.456;2022-11-18T04:27:05;97722.25;;;7.58;100.00
70982;BME280;58640;51.320;9.456;2022-11-18T04:29:31;97731.28;;;7.57;100.00
70982;BME280;58640;51.320;9.456;2022-11-18T04:31:58;97732.97;;;7.58;100.00
70982;BME280;58640;51.320;9.456;2022-11-18T04:34:24;97739.13;;;7.58;100.00
70982;BME280;58640;51.320;9.456;2022-11-18T04:36:49;97740.75;;;7.53;100.00
70982;BME280;58640;51.320;9.456;2022-11-18T04:39:15;97742.19;;;7.55;100.00
70982;BME280;58640;51.320;9.456;2022-11-18T04:41:42;97740.75;;;7.53;100.00
70982;BME280;58640;51.320;9.456;2022-11-18T04:44:26;97745.06;;;7.54;100.00
70982;BME280;58640;51.320;9.456;2022-11-18T04:46:53;97746.75;;;7.55;100.00
70982;BME280;58640;51.320;9.456;2022-11-18T04:49:19;97744.47;;;7.58;100.00
70982;BME280;58640;51.320;9.456;2022-11-18T04:51:45;97754.78;;;7.61;100.00
70982;BME280;58640;51.320;9.456;2022-11-18T04:54:11;97750.06;;;7.63;100.00
70982;BME280;58640;51.320;9.456;2022-11-18T04:56:37;97754.41;;;7.64;100.00
70982;BME280;58640;51.320;9.456;2022-11-18T05:01:33;97759.97;;;7.69;100.00
70982;BME280;58640;51.320;9.456;2022-11-18T05:03:59;97759.56;;;7.66;100.00
70982;BME280;58640;51.320;9.456;2022-11-18T05:06:25;97761.59;;;7.64;100.00
70982;BME280;58640;51.320;9.456;2022-11-18T05:08:50;97763.44;;;7.63;100.00
70982;BME280;58640;51.320;9.456;2022-11-18T05:11:16;97766.34;;;7.68;100.00
70982;BME280;58640;51.320;9.456;2022-11-18T05:13:59;97769.03;;;7.68;100.00
70982;BME280;58640;51.320;9.456;2022-11-18T05:16:25;97778.69;;;7.69;100.00
70982;BME280;58640;51.320;9.456;2022-11-18T05:18:50;97771.50;;;7.70;100.00
70982;BME280;58640;51.320;9.456;2022-11-18T05:21:15;97770.50;;;7.71;100.00
70982;BME280;58640;51.320;9.456;2022-11-18T05:23:41;97776.00;;;7.69;100.00
70982;BME280;58640;51.320;9.456;2022-11-18T05:26:08;97767.81;;;7.71;100.00
70982;BME280;58640;51.320;9.456;2022-11-18T05:28:35;97776.44;;;7.73;100.00
70982;BME280;58640;51.320;9.456;2022-11-18T05:31:09;97771.09;;;7.73;100.00
70982;BME280;58640;51.320;9.456;2022-11-18T05:33:35;97774.41;;;7.75;100.00
70982;BME280;58640;51.320;9.456;2022-11-18T05:36:05;97779.75;;;7.75;100.00
70982;BME280;58640;51.320;9.456;2022-11-18T05:38:32;97776.44;;;7.73;100.00
70982;BME280;58640;51.320;9.456;2022-11-18T05:40:57;97781.59;;;7.74;100.00
70982;BME280;58640;51.320;9.456;2022-11-18T05:43:23;97782.84;;;7.72;100.00
70982;BME280;58640;51.320;9.456;2022-11-18T05:45:49;97785.50;;;7.72;100.00
70982;BME280;58640;51.320;9.456;2022-11-18T05:48:15;97789.03;;;7.72;100.00
70982;BME280;58640;51.320;9.456;2022-11-18T05:50:40;97791.25;;;7.69;100.00
70982;BME280;58640;51.320;9.456;2022-11-18T05:53:06;97793.31;;;7.67;100.00
70982;BME280;58640;51.320;9.456;2022-11-18T05:55:39;97800.28;;;7.68;100.00
70982;BME280;58640;51.320;9.456;2022-11-18T05:58:06;97805.03;;;7.66;100.00
70982;BME280;58640;51.320;9.456;2022-11-18T06:00:31;97810.81;;;7.69;100.00
70982;BME280;58640;51.320;9.456;2022-11-18T06:02:57;97807.31;;;7.69;100.00
70982;BME280;58640;51.320;9.456;2022-11-18T06:05:24;97806.47;;;7.68;100.00
70982;BME280;58640;51.320;9.456;2022-11-18T06:07:51;97815.53;;;7.67;100.00
70982;BME280;58640;51.320;9.456;2022-11-18T06:10:23;97813.69;;;7.68;100.00
70982;BME280;58640;51.320;9.456;2022-11-18T06:12:51;97816.16;;;7.69;100.00
70982;BME280;58640;51.320;9.456;2022-11-18T06:15:22;97826.84;;;7.69;100.00
70982;BME280;58640;51.320;9.456;2022-11-18T06:17:56;97828.28;;;7.65;100.00
70982;BME280;58640;51.320;9.456;2022-11-18T06:20:24;97825.63;;;7.65;100.00
70982;BME280;58640;51.320;9.456;2022-11-18T06:22:52;97827.25;;;7.66;100.00
70982;BME280;58640;51.320;9.456;2022-11-18T06:25:19;97825.81;;;7.64;100.00
70982;BME280;58640;51.320;9.456;2022-11-18T06:27:45;97836.50;;;7.64;100.00
70982;BME280;58640;51.320;9.456;2022-11-18T06:30:12;97839.00;;;7.65;100.00
70982;BME280;58640;51.320;9.456;2022-11-18T06:32:38;97837.34;;;7.64;100.00
70982;BME280;58640;51.320;9.456;2022-11-18T06:35:03;97840.59;;;7.60;100.00
70982;BME280;58640;51.320;9.456;2022-11-18T06:37:29;97836.28;;;7.59;100.00
70982;BME280;58640;51.320;9.456;2022-11-18T06:39:54;97848.41;;;7.61;100.00
70982;BME280;58640;51.320;9.456;2022-11-18T06:42:19;97848.63;;;7.60;100.00
70982;BME280;58640;51.320;9.456;2022-11-18T06:45:04;97852.97;;;7.61;100.00
70982;BME280;58640;51.320;9.456;2022-11-18T06:47:29;97864.00;;;7.51;100.00
70982;BME280;58640;51.320;9.456;2022-11-18T06:49:55;97867.50;;;7.52;100.00
70982;BME280;58640;51.320;9.456;2022-11-18T06:52:21;97859.09;;;7.55;100.00
70982;BME280;58640;51.320;9.456;2022-11-18T06:54:46;97869.81;;;7.61;100.00
70982;BME280;58640;51.320;9.456;2022-11-18T06:57:12;97862.19;;;7.58;100.00
70982;BME280;58640;51.320;9.456;2022-11-18T06:59:37;97875.75;;;7.57;100.00
70982;BME280;58640;51.320;9.456;2022-11-18T07:02:02;97870.66;;;7.62;100.00
70982;BME280;58640;51.320;9.456;2022-11-18T07:04:28;97879.53;;;7.62;100.00
70982;BME280;58640;51.320;9.456;2022-11-18T07:06:53;97879.91;;;7.59;100.00
70982;BME280;58640;51.320;9.456;2022-11-18T07:09:18;97893.09;;;7.61;100.00
70982;BME280;58640;51.320;9.456;2022-11-18T07:11:44;97886.91;;;7.60;100.00
70982;BME280;58640;51.320;9.456;2022-11-18T07:14:09;97893.91;;;7.61;100.00
70982;BME280;58640;51.320;9.456;2022-11-18T07:16:36;97889.19;;;7.63;100.00
70982;BME280;58640;51.320;9.456;2022-11-18T07:19:10;97895.00;;;7.67;100.00
70982;BME280;58640;51.320;9.456;2022-11-18T07:21:35;97891.66;;;7.65;100.00
70982;BME280;58640;51.320;9.456;2022-11-18T07:24:04;97898.09;;;7.70;100.00
70982;BME280;58640;51.320;9.456;2022-11-18T07:26:31;97898.75;;;7.72;100.00
70982;BME280;58640;51.320;9.456;2022-11-18T07:28:56;97902.81;;;7.68;100.00
70982;BME280;58640;51.320;9.456;2022-11-18T07:31:21;97906.00;;;7.78;100.00
70982;BME280;58640;51.320;9.456;2022-11-18T07:33:47;97915.06;;;7.84;100.00
70982;BME280;58640;51.320;9.456;2022-11-18T07:36:15;97916.56;;;7.86;100.00
70982;BME280;58640;51.320;9.456;2022-11-18T07:38:40;97916.06;;;7.76;100.00
70982;BME280;58640;51.320;9.456;2022-11-18T07:41:11;97923.34;;;7.89;100.00
70982;BME280;58640;51.320;9.456;2022-11-18T07:43:37;97926.91;;;7.96;100.00
70982;BME280;58640;51.320;9.456;2022-11-18T07:46:19;97925.16;;;7.82;100.00
70982;BME280;58640;51.320;9.456;2022-11-18T07:48:47;97932.91;;;7.70;100.00
70982;BME280;58640;51.320;9.456;2022-11-18T07:51:14;97933.16;;;7.75;100.00
70982;BME280;58640;51.320;9.456;2022-11-18T07:53:41;97938.31;;;7.77;100.00
70982;BME280;58640;51.320;9.456;2022-11-18T07:56:07;97943.41;;;7.72;100.00
70982;BME280;58640;51.320;9.456;2022-11-18T07:58:33;97952.50;;;7.77;100.00
70982;BME280;58640;51.320;9.456;2022-11-18T08:01:08;97951.50;;;7.78;100.00
70982;BME280;58640;51.320;9.456;2022-11-18T08:03:34;97951.69;;;7.77;100.00
70982;BME280;58640;51.320;9.456;2022-11-18T08:06:00;97963.06;;;7.85;100.00
70982;BME280;58640;51.320;9.456;2022-11-18T08:08:26;97962.66;;;7.88;100.00
70982;BME280;58640;51.320;9.456;2022-11-18T08:10:56;97968.81;;;7.82;100.00
70982;BME280;58640;51.320;9.456;2022-11-18T08:13:22;97967.75;;;7.77;100.00
70982;BME280;58640;51.320;9.456;2022-11-18T08:15:48;97971.69;;;7.81;100.00
70982;BME280;58640;51.320;9.456;2022-11-18T08:18:13;97969.63;;;7.83;100.00
70982;BME280;58640;51.320;9.456;2022-11-18T08:20:39;97962.44;;;7.83;100.00
70982;BME280;58640;51.320;9.456;2022-11-18T08:23:04;97972.75;;;7.86;100.00
70982;BME280;58640;51.320;9.456;2022-11-18T08:25:29;97978.91;;;7.87;100.00
70982;BME280;58640;51.320;9.456;2022-11-18T08:27:55;97978.50;;;7.83;100.00
70982;BME280;58640;51.320;9.456;2022-11-18T08:30:20;97982.44;;;7.87;100.00
70982;BME280;58640;51.320;9.456;2022-11-18T08:32:45;97982.00;;;7.84;100.00
70982;BME280;58640;51.320;9.456;2022-11-18T08:35:11;97983.22;;;7.81;100.00
70982;BME280;58640;51.320;9.456;2022-11-18T08:37:36;97979.91;;;7.79;100.00
70982;BME280;58640;51.320;9.456;2022-11-18T08:40:02;97986.16;;;7.86;100.00
70982;BME280;58640;51.320;9.456;2022-11-18T08:42:28;97985.16;;;7.94;100.00
70982;BME280;58640;51.320;9.456;2022-11-18T08:44:53;97983.78;;;7.98;100.00
70982;BME280;58640;51.320;9.456;2022-11-18T08:47:18;97981.25;;;7.96;100.00
70982;BME280;58640;51.320;9.456;2022-11-18T08:49:44;97993.00;;;7.95;100.00
70982;BME280;58640;51.320;9.456;2022-11-18T08:52:09;97989.63;;;7.87;100.00
70982;BME280;58640;51.320;9.456;2022-11-18T08:54:35;97991.75;;;7.91;100.00
70982;BME280;58640;51.320;9.456;2022-11-18T08:57:00;97988.09;;;7.99;100.00
70982;BME280;58640;51.320;9.456;2022-11-18T08:59:26;97994.44;;;7.91;100.00
70982;BME280;58640;51.320;9.456;2022-11-18T09:01:51;97993.84;;;7.96;100.00
70982;BME280;58640;51.320;9.456;2022-11-18T09:04:16;97995.28;;;7.98;100.00
70982;BME280;58640;51.320;9.456;2022-11-18T09:06:42;97998.41;;;8.02;100.00
70982;BME280;58640;51.320;9.456;2022-11-18T09:09:07;98002.31;;;7.99;100.00
70982;BME280;58640;51.320;9.456;2022-11-18T09:11:33;98001.94;;;8.30;100.00
70982;BME280;58640;51.320;9.456;2022-11-18T09:13:59;98002.19;;;8.07;100.00
70982;BME280;58640;51.320;9.456;2022-11-18T09:16:26;98003.56;;;8.03;100.00
70982;BME280;58640;51.320;9.456;2022-11-18T09:18:54;98001.09;;;8.02;100.00
70982;BME280;58640;51.320;9.456;2022-11-18T09:21:19;98003.31;;;7.98;100.00
70982;BME280;58640;51.320;9.456;2022-11-18T09:23:45;98008.63;;;7.92;100.00
70982;BME280;58640;51.320;9.456;2022-11-18T09:26:13;98006.38;;;7.95;100.00
70982;BME280;58640;51.320;9.456;2022-11-18T09:28:39;98010.63;;;7.83;100.00
70982;BME280;58640;51.320;9.456;2022-11-18T09:31:07;98005.66;;;7.80;100.00
70982;BME280;58640;51.320;9.456;2022-11-18T09:33:36;98005.69;;;7.87;100.00
70982;BME280;58640;51.320;9.456;2022-11-18T09:36:02;98012.53;;;7.89;100.00
70982;BME280;58640;51.320;9.456;2022-11-18T09:38:29;98014.63;;;7.94;100.00
70982;BME280;58640;51.320;9.456;2022-11-18T09:41:06;98014.63;;;7.94;100.00
70982;BME280;58640;51.320;9.456;2022-11-18T09:43:37;98020.63;;;7.96;100.00
70982;BME280;58640;51.320;9.456;2022-11-18T09:48:48;98028.25;;;7.99;100.00
70982;BME280;58640;51.320;9.456;2022-11-18T09:51:38;98038.75;;;8.21;99.05
70982;BME280;58640;51.320;9.456;2022-11-18T09:54:08;98040.97;;;8.18;99.50
70982;BME280;58640;51.320;9.456;2022-11-18T09:56:34;98037.78;;;8.08;99.87
70982;BME280;58640;51.320;9.456;2022-11-18T09:59:02;98040.03;;;8.04;100.00
70982;BME280;58640;51.320;9.456;2022-11-18T10:01:28;98047.63;;;8.01;100.00
70982;BME280;58640;51.320;9.456;2022-11-18T10:03:53;98040.00;;;7.98;100.00
70982;BME280;58640;51.320;9.456;2022-11-18T10:06:23;98048.25;;;8.03;100.00
70982;BME280;58640;51.320;9.456;2022-11-18T10:09:41;98051.19;;;8.08;100.00
70982;BME280;58640;51.320;9.456;2022-11-18T10:17:34;98054.50;;;8.31;99.50
70982;BME280;58640;51.320;9.456;2022-11-18T10:23:02;98049.53;;;8.28;100.00
70982;BME280;58640;51.320;9.456;2022-11-18T10:25:29;98057.19;;;8.31;100.00
70982;BME280;58640;51.320;9.456;2022-11-18T10:27:55;98068.28;;;8.28;99.88
70982;BME280;58640;51.320;9.456;2022-11-18T10:30:24;98061.75;;;8.37;100.00
70982;BME280;58640;51.320;9.456;2022-11-18T10:35:26;98071.72;;;8.49;99.50
70982;BME280;58640;51.320;9.456;2022-11-18T10:40:29;98071.81;;;8.35;98.48
70982;BME280;58640;51.320;9.456;2022-11-18T10:42:54;98081.16;;;8.39;99.27
70982;BME280;58640;51.320;9.456;2022-11-18T10:50:33;98087.13;;;8.41;99.63
70982;BME280;58640;51.320;9.456;2022-11-18T10:53:00;98078.72;;;8.44;99.79
70982;BME280;58640;51.320;9.456;2022-11-18T10:55:26;98084.88;;;8.44;99.78
70982;BME280;58640;51.320;9.456;2022-11-18T10:58:13;98079.97;;;8.48;99.86
70982;BME280;58640;51.320;9.456;2022-11-18T11:00:46;98085.28;;;8.41;99.02
70982;BME280;58640;51.320;9.456;2022-11-18T11:03:22;98074.69;;;8.33;100.00
70982;BME280;58640;51.320;9.456;2022-11-18T11:08:55;98086.91;;;8.36;99.40
70982;BME280;58640;51.320;9.456;2022-11-18T11:14:10;98088.78;;;8.42;98.93
70982;BME280;58640;51.320;9.456;2022-11-18T11:16:46;98092.66;;;8.39;99.70
70982;BME280;58640;51.320;9.456;2022-11-18T11:19:13;98090.03;;;8.46;99.31
70982;BME280;58640;51.320;9.456;2022-11-18T11:21:42;98099.50;;;8.42;99.14
70982;BME280;58640;51.320;9.456;2022-11-18T11:24:10;98097.47;;;8.44;99.64
70982;BME280;58640;51.320;9.456;2022-11-18T11:26:49;98096.63;;;8.43;98.35
70982;BME280;58640;51.320;9.456;2022-11-18T11:32:21;98108.00;;;8.45;96.82
70982;BME280;58640;51.320;9.456;2022-11-18T11:37:58;98114.22;;;8.25;97.87
70982;BME280;58640;51.320;9.456;2022-11-18T11:40:34;98117.97;;;8.30;97.48
70982;BME280;58640;51.320;9.456;2022-11-18T11:43:34;98108.88;;;8.31;98.29
70982;BME280;58640;51.320;9.456;2022-11-18T11:49:15;98117.31;;;8.28;96.39
70982;BME280;58640;51.320;9.456;2022-11-18T11:51:52;98119.88;;;8.15;95.86
70982;BME280;58640;51.320;9.456;2022-11-18T11:56:54;98125.28;;;7.80;98.33
70982;BME280;58640;51.320;9.456;2022-11-18T11:59:30;98124.38;;;7.73;99.39
70982;BME280;58640;51.320;9.456;2022-11-18T12:02:32;98130.69;;;7.86;97.42
70982;BME280;58640;51.320;9.456;2022-11-18T12:07:39;98130.47;;;7.67;98.93
70982;BME280;58640;51.320;9.456;2022-11-18T12:10:26;98126.03;;;7.74;97.37
70982;BME280;58640;51.320;9.456;2022-11-18T12:16:14;98119.00;;;7.73;97.63
70982;BME280;58640;51.320;9.456;2022-11-18T12:18:58;98128.50;;;7.54;98.73
70982;BME280;58640;51.320;9.456;2022-11-18T12:26:46;98134.88;;;7.53;98.09
70982;BME280;58640;51.320;9.456;2022-11-18T12:31:53;98132.91;;;7.47;99.32
70982;BME280;58640;51.320;9.456;2022-11-18T12:34:39;98143.91;;;7.37;98.94
70982;BME280;58640;51.320;9.456;2022-11-18T12:42:43;98129.97;;;7.42;97.60
70982;BME280;58640;51.320;9.456;2022-11-18T12:48:34;98153.06;;;7.43;96.25
70982;BME280;58640;51.320;9.456;2022-11-18T12:53:43;98157.00;;;7.32;96.95
70982;BME280;58640;51.320;9.456;2022-11-18T12:58:44;98154.63;;;7.23;97.75
70982;BME280;58640;51.320;9.456;2022-11-18T13:01:12;98159.06;;;7.16;98.11
70982;BME280;58640;51.320;9.456;2022-11-18T13:03:37;98157.94;;;7.25;97.75
70982;BME280;58640;51.320;9.456;2022-11-18T13:08:42;98156.41;;;6.87;99.58
70982;BME280;58640;51.320;9.456;2022-11-18T13:11:15;98164.88;;;6.90;99.80
70982;BME280;58640;51.320;9.456;2022-11-18T13:14:00;98161.66;;;6.95;99.56
70982;BME280;58640;51.320;9.456;2022-11-18T13:16:45;98163.41;;;7.02;98.87
70982;BME280;58640;51.320;9.456;2022-11-18T13:19:29;98163.88;;;7.06;98.60
70982;BME280;58640;51.320;9.456;2022-11-18T13:21:56;98164.22;;;6.88;99.33
70982;BME280;58640;51.320;9.456;2022-11-18T13:24:57;98175.13;;;7.01;98.93
70982;BME280;58640;51.320;9.456;2022-11-18T13:30:11;98177.22;;;7.06;97.40
70982;BME280;58640;51.320;9.456;2022-11-18T13:32:42;98173.00;;;7.11;97.03
70982;BME280;58640;51.320;9.456;2022-11-18T13:35:20;98184.31;;;6.99;97.38
70982;BME280;58640;51.320;9.456;2022-11-18T13:37:59;98178.78;;;6.71;98.63
70982;BME280;58640;51.320;9.456;2022-11-18T13:40:37;98185.72;;;6.95;96.48
70982;BME280;58640;51.320;9.456;2022-11-18T13:43:03;98185.03;;;6.78;97.04
70982;BME280;58640;51.320;9.456;2022-11-18T13:45:29;98195.63;;;6.72;97.74
70982;BME280;58640;51.320;9.456;2022-11-18T13:50:34;98184.94;;;6.57;99.28
70982;BME280;58640;51.320;9.456;2022-11-18T13:53:25;98190.53;;;6.62;99.15
70982;BME280;58640;51.320;9.456;2022-11-18T14:00:59;98196.25;;;6.59;99.27
70982;BME280;58640;51.320;9.456;2022-11-18T14:03:29;98208.53;;;6.68;98.44
70982;BME280;58640;51.320;9.456;2022-11-18T14:05:57;98207.47;;;6.55;99.13
70982;BME280;58640;51.320;9.456;2022-11-18T14:08:31;98210.88;;;6.49;97.74
70982;BME280;58640;51.320;9.456;2022-11-18T14:10:57;98212.16;;;6.53;96.82
70982;BME280;58640;51.320;9.456;2022-11-18T14:13:34;98213.78;;;6.39;96.96
70982;BME280;58640;51.320;9.456;2022-11-18T14:16:03;98215.88;;;6.29;97.89
70982;BME280;58640;51.320;9.456;2022-11-18T14:18:50;98211.91;;;6.48;96.94
70982;BME280;58640;51.320;9.456;2022-11-18T14:21:30;98215.31;;;6.34;97.99
70982;BME280;58640;51.320;9.456;2022-11-18T14:23:56;98216.28;;;6.41;97.38
70982;BME280;58640;51.320;9.456;2022-11-18T14:26:27;98219.66;;;6.35;97.42
70982;BME280;58640;51.320;9.456;2022-11-18T14:28:59;98235.44;;;6.44;96.68
70982;BME280;58640;51.320;9.456;2022-11-18T14:31:28;98236.31;;;6.37;96.30
70982;BME280;58640;51.320;9.456;2022-11-18T14:34:25;98237.22;;;6.29;96.44
70982;BME280;58640;51.320;9.456;2022-11-18T14:36:52;98237.47;;;6.20;96.68
70982;BME280;58640;51.320;9.456;2022-11-18T14:39:25;98243.09;;;6.25;95.87
70982;BME280;58640;51.320;9.456;2022-11-18T14:41:51;98254.38;;;5.73;98.24
70982;BME280;58640;51.320;9.456;2022-11-18T14:44:17;98246.06;;;5.68;99.57
70982;BME280;58640;51.320;9.456;2022-11-18T14:46:49;98246.63;;;5.56;99.18
70982;BME280;58640;51.320;9.456;2022-11-18T14:49:19;98252.81;;;5.56;98.51
70982;BME280;58640;51.320;9.456;2022-11-18T14:51:49;98254.41;;;5.65;98.39
70982;BME280;58640;51.320;9.456;2022-11-18T14:54:16;98257.97;;;5.58;97.78
70982;BME280;58640;51.320;9.456;2022-11-18T14:56:43;98265.47;;;5.54;97.34
70982;BME280;58640;51.320;9.456;2022-11-18T14:59:11;98261.88;;;5.31;97.99